createdAt,value
2019-05-14T00:03:45.143Z,98502.23
2019-05-14T00:08:48.763Z,98498.98
2019-05-14T00:13:52.911Z,98496.41
2019-05-14T00:18:56.301Z,98489.33
2019-05-14T00:24:01.800Z,98491.13
2019-05-14T00:29:05.032Z,98491.00
2019-05-14T00:34:11.011Z,98492.52
2019-05-14T00:39:13.832Z,98483.20
2019-05-14T00:44:17.458Z,98486.14
2019-05-14T00:49:21.283Z,98478.13
2019-05-14T00:54:24.711Z,98483.56
2019-05-14T00:59:28.098Z,98468.09
2019-05-14T01:04:31.823Z,98466.38
2019-05-14T01:09:35.152Z,98463.02
2019-05-14T01:14:38.541Z,98465.02
2019-05-14T01:19:42.611Z,98469.77
2019-05-14T01:24:46.114Z,98467.41
2019-05-14T01:29:51.450Z,98458.18
2019-05-14T01:34:54.607Z,98452.01
2019-05-14T01:39:57.998Z,98447.44
2019-05-14T01:45:02.576Z,98446.19
2019-05-14T01:50:07.124Z,98439.09
2019-05-14T01:55:11.471Z,98439.22
2019-05-14T02:00:15.403Z,98441.52
2019-05-14T02:05:18.819Z,98435.01
2019-05-14T02:10:22.745Z,98425.31
2019-05-14T02:15:38.889Z,98436.87
2019-05-14T02:20:32.118Z,98433.44
2019-05-14T02:25:35.622Z,98432.08
2019-05-14T02:30:52.478Z,98433.42
2019-05-14T02:35:44.425Z,98434.64
2019-05-14T02:40:49.452Z,98424.88
2019-05-14T02:46:06.082Z,98427.58
2019-05-14T02:50:59.907Z,98420.61
2019-05-14T02:56:03.709Z,98416.79
2019-05-14T03:01:09.430Z,98409.05
2019-05-14T03:06:12.535Z,98399.92
2019-05-14T03:11:16.160Z,98398.66
2019-05-14T03:16:29.318Z,98402.02
2019-05-14T03:21:24.673Z,98400.21
2019-05-14T03:26:29.341Z,98400.61
2019-05-14T03:31:34.117Z,98396.90
2019-05-14T03:36:42.689Z,98398.73
2019-05-14T03:41:42.753Z,98399.95
2019-05-14T03:46:54.703Z,98392.08
2019-05-14T03:51:51.414Z,98390.61
2019-05-14T03:56:55.003Z,98390.36
2019-05-14T04:01:59.607Z,98391.52
2019-05-14T04:07:04.227Z,98386.38
2019-05-14T04:12:10.119Z,98382.41
2019-05-14T04:17:25.522Z,98375.80
2019-05-14T04:22:24.086Z,98367.67
2019-05-14T04:27:30.253Z,98373.27
2019-05-14T04:32:33.814Z,98368.34
2019-05-14T04:37:39.919Z,98372.23
2019-05-14T04:42:42.583Z,98366.57
2019-05-14T04:47:49.525Z,98363.66
2019-05-14T04:52:51.107Z,98365.06
2019-05-14T04:57:54.730Z,98375.66
2019-05-14T05:03:00.008Z,98378.10
2019-05-14T05:08:03.226Z,98375.05
2019-05-14T05:13:09.125Z,98370.84
2019-05-14T05:18:11.740Z,98374.10
2019-05-14T05:23:15.370Z,98370.77
2019-05-14T05:28:19.199Z,98372.24
2019-05-14T05:33:22.547Z,98366.62
2019-05-14T05:38:25.958Z,98374.01
2019-05-14T05:43:29.381Z,98363.22
2019-05-14T05:48:33.037Z,98358.66
2019-05-14T05:53:39.038Z,98354.28
2019-05-14T05:58:41.556Z,98359.08
2019-05-14T06:03:44.972Z,98371.29
2019-05-14T06:08:49.161Z,98353.95
2019-05-14T06:13:52.847Z,98356.44
2019-05-14T06:18:58.622Z,98347.97
2019-05-14T06:24:02.950Z,98339.69
2019-05-14T06:29:08.403Z,98341.84
2019-05-14T06:34:11.583Z,98335.02
2019-05-14T06:39:14.975Z,98323.44
2019-05-14T06:44:18.818Z,98328.96
2019-05-14T06:49:22.282Z,98330.33
2019-05-14T06:54:25.700Z,98333.05
2019-05-14T06:59:29.088Z,98334.94
2019-05-14T07:04:32.473Z,98325.83
2019-05-14T07:09:38.353Z,98327.13
2019-05-14T07:14:41.653Z,98334.02
2019-05-14T07:19:45.064Z,98327.88
2019-05-14T07:24:49.710Z,98335.82
2019-05-14T07:29:53.353Z,98339.23
2019-05-14T07:34:56.772Z,98338.56
2019-05-14T07:40:00.189Z,98340.52
2019-05-14T07:45:04.702Z,98337.92
2019-05-14T07:50:09.441Z,98336.50
2019-05-14T07:55:13.069Z,98330.71
2019-05-14T08:00:19.160Z,98333.08
2019-05-14T08:05:22.334Z,98317.14
2019-05-14T08:10:25.742Z,98312.25
2019-05-14T08:15:29.133Z,98310.30
2019-05-14T08:20:32.522Z,98302.86
2019-05-14T08:25:35.914Z,98301.11
2019-05-14T08:30:39.332Z,98288.78
2019-05-14T08:35:42.761Z,98282.73
2019-05-14T08:40:48.663Z,98275.81
2019-05-14T08:45:51.324Z,98278.75
2019-05-14T08:50:54.714Z,98273.92
2019-05-14T08:55:58.931Z,98262.88
2019-05-14T09:01:02.441Z,98259.55
2019-05-14T09:06:05.833Z,98253.08
2019-05-14T09:11:10.123Z,98246.23
2019-05-14T09:16:13.842Z,98247.37
2019-05-14T09:21:20.214Z,98239.78
2019-05-14T09:26:22.349Z,98220.25
2019-05-14T09:31:25.746Z,98227.42
2019-05-14T09:36:29.273Z,98214.08
2019-05-14T09:41:32.733Z,98221.70
2019-05-14T09:46:38.285Z,98206.97
2019-05-14T09:51:41.244Z,98207.20
2019-05-14T09:56:44.650Z,98206.05
2019-05-14T10:01:50.787Z,98208.42
2019-05-14T10:06:53.201Z,98203.44
2019-05-14T10:11:57.988Z,98203.43
2019-05-14T10:17:01.507Z,98202.30
2019-05-14T10:22:04.932Z,98193.89
2019-05-14T10:27:09.101Z,98190.52
2019-05-14T10:32:12.609Z,98177.91
2019-05-14T10:37:16.050Z,98162.94
2019-05-14T10:42:20.296Z,98154.58
2019-05-14T10:47:23.806Z,98166.53
2019-05-14T10:52:28.880Z,98150.45
2019-05-14T10:57:32.543Z,98149.58
2019-05-14T11:02:38.533Z,98128.23
2019-05-14T11:07:41.913Z,98128.23
2019-05-14T11:12:45.316Z,98146.43
2019-05-14T11:17:48.907Z,98137.61
2019-05-14T11:22:52.508Z,98137.58
2019-05-14T11:27:58.455Z,98137.59
2019-05-14T11:33:01.378Z,98116.83
2019-05-14T11:38:04.800Z,98102.51
2019-05-14T11:43:08.465Z,98090.67
2019-05-14T11:48:11.865Z,98076.84
2019-05-14T11:53:15.270Z,98082.20
2019-05-14T11:58:20.984Z,98075.66
2019-05-14T12:03:24.087Z,98066.50
2019-05-14T12:08:28.781Z,98083.08
2019-05-14T12:13:33.000Z,98104.11
2019-05-14T12:18:41.360Z,98088.86
2019-05-14T12:23:41.526Z,98084.47
2019-05-14T12:28:44.955Z,98092.01
2019-05-14T12:33:48.954Z,98092.02
2019-05-14T12:38:52.442Z,98081.47
2019-05-14T12:43:55.866Z,98070.58
2019-05-14T12:48:59.277Z,98055.73
2019-05-14T12:54:02.671Z,98043.61
2019-05-14T12:59:06.070Z,98043.58
2019-05-14T13:04:09.454Z,98037.27
2019-05-14T13:09:12.844Z,98027.19
2019-05-14T13:14:16.239Z,98029.02
2019-05-14T13:19:19.877Z,97997.30
2019-05-14T13:24:23.272Z,97997.30
2019-05-14T13:29:28.932Z,97976.25
2019-05-14T13:34:31.781Z,97979.63
2019-05-14T13:39:35.214Z,97983.80
2019-05-14T13:44:38.663Z,97992.99
2019-05-14T13:49:42.063Z,97998.14
2019-05-14T13:54:45.488Z,98026.45
2019-05-14T13:59:49.446Z,98006.37
2019-05-14T14:04:52.873Z,97980.84
2019-05-14T14:09:58.978Z,97970.38
2019-05-14T14:15:01.459Z,97963.67
2019-05-14T14:20:08.303Z,97950.73
2019-05-14T14:25:12.313Z,97941.89
2019-05-14T14:30:19.532Z,97945.41
2019-05-14T14:35:24.544Z,97948.00
2019-05-14T14:40:30.214Z,97956.47
2019-05-14T14:45:33.401Z,97952.26
2019-05-14T14:50:38.959Z,97929.91
2019-05-14T14:55:42.265Z,97936.36
2019-05-14T15:00:45.661Z,97923.45
2019-05-14T15:05:49.978Z,97929.48
2019-05-14T15:10:53.447Z,97940.51
2019-05-14T15:15:56.873Z,97946.01
2019-05-14T15:21:00.268Z,97930.59
2019-05-14T15:26:03.813Z,97924.47
2019-05-14T15:31:08.696Z,97941.13
2019-05-14T15:36:12.419Z,97927.64
2019-05-14T15:41:15.869Z,97917.49
2019-05-14T15:46:19.292Z,97910.78
2019-05-14T15:51:22.683Z,97924.12
2019-05-14T15:56:26.106Z,97936.17
2019-05-14T16:01:29.525Z,97922.50
2019-05-14T16:06:33.157Z,97923.19
2019-05-14T16:11:36.549Z,97908.06
2019-05-14T16:16:39.990Z,97903.97
2019-05-14T16:21:43.409Z,97895.91
2019-05-14T16:26:46.835Z,97899.89
2019-05-14T16:31:50.230Z,97901.75
2019-05-14T16:36:53.628Z,97897.17
2019-05-14T16:41:58.287Z,97904.67
2019-05-14T16:47:01.694Z,97898.59
2019-05-14T16:52:05.130Z,97894.99
2019-05-14T16:57:11.061Z,97900.04
2019-05-14T17:02:13.952Z,97897.89
2019-05-14T17:07:18.295Z,97902.79
2019-05-14T17:12:22.989Z,97906.19
2019-05-14T17:17:26.509Z,97898.78
2019-05-14T17:22:33.562Z,97912.50
2019-05-14T17:27:35.013Z,97926.52
2019-05-14T17:32:39.366Z,97937.84
2019-05-14T17:37:42.846Z,97934.77
2019-05-14T17:42:48.764Z,97933.64
2019-05-14T17:47:51.866Z,97931.19
2019-05-14T17:52:56.972Z,97943.67
2019-05-14T17:58:00.759Z,97947.84
2019-05-14T18:03:04.699Z,97948.73
2019-05-14T18:08:09.291Z,97943.98
2019-05-14T18:13:12.847Z,97937.33
2019-05-14T18:18:18.435Z,97944.48
2019-05-14T18:23:21.422Z,97946.00
2019-05-14T18:28:24.882Z,97947.88
2019-05-14T18:33:31.172Z,97948.84
2019-05-14T18:38:33.757Z,97948.93
2019-05-14T18:43:37.240Z,97953.30
2019-05-14T18:48:40.873Z,97954.80
2019-05-14T18:53:44.265Z,97964.26
2019-05-14T18:58:49.006Z,97976.25
2019-05-14T19:03:52.600Z,97988.78
2019-05-14T19:08:56.016Z,98006.27
2019-05-14T19:13:59.647Z,97995.95
2019-05-14T19:19:03.269Z,98001.27
2019-05-14T19:24:08.938Z,97990.59
2019-05-14T19:29:11.823Z,97989.12
2019-05-14T19:34:15.243Z,97984.66
2019-05-14T19:39:18.876Z,97981.75
2019-05-14T19:44:22.580Z,97979.63
2019-05-14T19:49:25.969Z,97979.34
2019-05-14T19:54:29.410Z,97980.38
2019-05-14T19:59:32.743Z,97984.19
2019-05-14T20:04:36.134Z,97982.92
2019-05-14T20:09:39.829Z,97987.11
2019-05-14T20:14:43.212Z,97988.88
2019-05-14T20:19:48.839Z,97986.35
2019-05-14T20:24:51.947Z,97989.96
2019-05-14T20:29:55.338Z,97993.25
2019-05-14T20:34:58.717Z,97993.39
2019-05-14T20:40:02.129Z,97988.78
2019-05-14T20:45:06.895Z,97981.73
2019-05-14T20:50:10.746Z,97979.30
2019-05-14T20:55:14.201Z,97974.30
2019-05-14T21:00:18.465Z,97972.56
2019-05-14T21:05:21.879Z,97967.06
2019-05-14T21:10:25.269Z,97966.97
2019-05-14T21:15:28.988Z,97958.52
2019-05-14T21:20:32.560Z,97957.66
2019-05-14T21:25:35.947Z,97950.08
2019-05-14T21:30:39.368Z,97946.98
2019-05-14T21:35:42.788Z,97944.62
2019-05-14T21:40:46.176Z,97939.40
2019-05-14T21:45:49.590Z,97933.47
2019-05-14T21:50:53.269Z,97933.22
2019-05-14T21:55:58.634Z,97937.22
2019-05-14T22:01:03.709Z,97937.86
2019-05-14T22:06:08.892Z,97940.50
2019-05-14T22:11:12.540Z,97944.35
2019-05-14T22:16:16.163Z,97940.03
2019-05-14T22:21:19.581Z,97938.80
2019-05-14T22:26:22.967Z,97935.65
2019-05-14T22:31:28.740Z,97932.08
2019-05-14T22:36:31.520Z,97928.14
2019-05-14T22:41:35.190Z,97924.19
2019-05-14T22:46:40.347Z,97919.92
2019-05-14T22:51:43.895Z,97911.22
2019-05-14T22:56:48.100Z,97910.14
2019-05-14T23:01:51.572Z,97904.03
2019-05-14T23:06:54.976Z,97907.44
2019-05-14T23:11:59.000Z,97897.69
2019-05-14T23:17:02.375Z,97893.16
2019-05-14T23:22:05.997Z,97892.45
2019-05-14T23:27:09.379Z,97886.77
2019-05-14T23:32:12.835Z,97892.55
2019-05-14T23:37:18.153Z,97892.91
2019-05-14T23:42:21.626Z,97880.88
2019-05-14T23:47:25.244Z,97876.70
2019-05-14T23:52:29.444Z,97875.55
2019-05-14T23:57:32.891Z,97863.24
